createdAt,value
2018-11-12T00:24:59.919Z,29.8
2018-11-12T00:25:48.579Z,30.3
2018-11-12T00:26:38.842Z,30.6
2018-11-12T00:27:29.065Z,31
2018-11-12T00:28:18.762Z,31.3
2018-11-12T00:29:10.270Z,31.6
2018-11-12T00:30:00.550Z,31.8
2018-11-12T00:30:49.770Z,32
2018-11-12T00:31:40.170Z,32.3
2018-11-12T00:32:29.596Z,32.4
2018-11-12T00:33:19.184Z,32.6
2018-11-12T00:34:08.380Z,32.8
2018-11-12T00:34:58.891Z,32.9
2018-11-12T00:35:48.031Z,33.1
2018-11-12T00:36:38.468Z,33.3
2018-11-12T00:37:28.639Z,33.4
2018-11-12T00:38:18.303Z,33.5
2018-11-12T00:39:09.633Z,33.6
2018-11-12T00:40:01.612Z,33.7
2018-11-12T00:40:49.764Z,33.8
2018-11-12T00:41:39.998Z,33.9
2018-11-12T00:42:29.878Z,34
2018-11-12T00:43:20.764Z,34
2018-11-12T00:44:10.566Z,34.1
2018-11-12T00:45:00.210Z,34.1
2018-11-12T00:45:50.880Z,34.3
2018-11-12T00:46:40.409Z,34.3
2018-11-12T00:47:31.088Z,34.3
2018-11-12T00:48:19.703Z,34.4
2018-11-12T00:49:10.694Z,34.4
2018-11-12T00:50:00.944Z,34.4
2018-11-12T00:50:50.407Z,34.5
2018-11-12T00:51:40.035Z,33.5
2018-11-12T00:52:29.815Z,33
2018-11-12T00:53:20.597Z,32.7
2018-11-12T00:54:09.720Z,32.2
2018-11-12T00:55:01.225Z,31.6
2018-11-12T00:55:51.670Z,30.7
2018-11-12T00:56:40.417Z,29.8
2018-11-12T00:57:31.135Z,28.9
2018-11-12T00:58:21.289Z,28.1
2018-11-12T00:59:10.268Z,27.4
2018-11-12T01:00:00.826Z,26.9
2018-11-12T01:00:53.583Z,26.6
2018-11-12T01:01:40.277Z,26.9
2018-11-12T01:02:31.404Z,27
2018-11-12T01:03:20.325Z,27
2018-11-12T01:04:12.901Z,26.9
2018-11-12T01:05:01.277Z,26.9
2018-11-12T01:05:52.857Z,26.8
2018-11-12T01:06:42.111Z,26.7
2018-11-12T01:07:32.026Z,26.6
2018-11-12T01:08:21.975Z,26.6
2018-11-12T01:09:11.164Z,26.6
2018-11-12T01:10:01.434Z,26.5
2018-11-12T01:10:51.967Z,26.5
2018-11-12T01:11:41.522Z,26.4
2018-11-12T01:12:32.004Z,27.3
2018-11-12T01:13:21.341Z,28.1
2018-11-12T01:14:12.181Z,28.7
2018-11-12T01:15:01.966Z,29.2
2018-11-12T01:15:51.752Z,29.7
2018-11-12T01:16:42.671Z,30.1
2018-11-12T01:17:32.721Z,30.3
2018-11-12T01:18:21.462Z,30.7
2018-11-12T01:19:11.821Z,30.9
2018-11-12T01:20:03.074Z,31.3
2018-11-12T01:20:53.033Z,31.5
2018-11-12T01:21:42.581Z,31.7
2018-11-12T01:22:32.491Z,31.9
2018-11-12T01:23:21.727Z,32
2018-11-12T01:24:11.692Z,32.2
2018-11-12T01:25:02.901Z,32.3
2018-11-12T01:25:53.248Z,32.4
2018-11-12T01:26:43.408Z,32.6
2018-11-12T01:27:32.940Z,32.7
2018-11-12T01:28:22.178Z,32.8
2018-11-12T01:29:13.651Z,32.5
2018-11-12T01:30:02.609Z,31.4
2018-11-12T01:30:54.341Z,29.8
2018-11-12T01:31:44.277Z,28.6
2018-11-12T01:32:33.423Z,27.6
2018-11-12T01:33:23.841Z,26.4
2018-11-12T01:34:14.076Z,25.4
2018-11-12T01:35:03.720Z,24.1
2018-11-12T01:35:53.330Z,22.9
2018-11-12T01:36:44.150Z,23.1
2018-11-12T01:37:34.557Z,23.3
2018-11-12T01:38:24.945Z,24.9
2018-11-12T01:39:14.422Z,26.4
2018-11-12T01:40:03.953Z,27.6
2018-11-12T01:40:54.045Z,28.5
2018-11-12T01:41:45.344Z,29.3
2018-11-12T01:42:34.533Z,29.8
2018-11-12T01:43:24.217Z,30.3
2018-11-12T01:44:15.053Z,30.8
2018-11-12T01:45:04.501Z,31.2
2018-11-12T01:45:54.590Z,31.6
2018-11-12T01:46:44.219Z,31.9
2018-11-12T01:47:35.165Z,32.3
2018-11-12T01:48:24.908Z,32.5
2018-11-12T01:49:15.338Z,32.8
2018-11-12T01:50:04.280Z,33
2018-11-12T01:50:54.647Z,33.3
2018-11-12T01:51:45.672Z,33.4
2018-11-12T01:52:35.595Z,33.6
2018-11-12T01:53:24.834Z,33.8
2018-11-12T01:54:15.104Z,33.9
2018-11-12T01:55:05.325Z,34.1
2018-11-12T01:55:56.112Z,34.2
2018-11-12T01:56:44.934Z,34.4
2018-11-12T01:57:35.847Z,34.4
2018-11-12T01:58:25.759Z,34.6
2018-11-12T01:59:14.804Z,34.6
2018-11-12T02:00:05.494Z,33.4
2018-11-12T02:00:56.408Z,33.1
2018-11-12T02:01:47.120Z,32.8
2018-11-12T02:02:35.619Z,32.3
2018-11-12T02:03:26.409Z,31.6
2018-11-12T02:04:16.046Z,30.7
2018-11-12T02:05:06.693Z,29.8
2018-11-12T02:05:56.658Z,28.8
2018-11-12T02:06:46.611Z,28
2018-11-12T02:07:36.122Z,27.4
2018-11-12T02:08:25.911Z,26.8
2018-11-12T02:09:16.665Z,26.4
2018-11-12T02:10:06.478Z,26.8
2018-11-12T02:10:56.614Z,26.9
2018-11-12T02:11:46.283Z,26.9
2018-11-12T02:12:35.977Z,26.9
2018-11-12T02:13:27.196Z,26.8
2018-11-12T02:14:15.782Z,26.8
2018-11-12T02:15:06.664Z,26.7
2018-11-12T02:15:56.008Z,26.6
2018-11-12T02:16:47.522Z,26.6
2018-11-12T02:17:36.938Z,26.6
2018-11-12T02:18:25.058Z,26.6
2018-11-12T02:19:17.850Z,26.4
2018-11-12T02:20:05.926Z,27
2018-11-12T02:20:56.856Z,27.9
2018-11-12T02:21:47.576Z,28.8
2018-11-12T02:22:38.066Z,29.3
2018-11-12T02:23:26.443Z,29.9
2018-11-12T02:24:16.802Z,30.3
2018-11-12T02:25:07.343Z,30.7
2018-11-12T02:25:57.577Z,31
2018-11-12T02:26:47.190Z,31.4
2018-11-12T02:27:38.240Z,31.7
2018-11-12T02:28:27.975Z,32
2018-11-12T02:29:17.845Z,32.2
2018-11-12T02:30:08.684Z,32.4
2018-11-12T02:30:57.472Z,32.7
2018-11-12T02:31:47.999Z,32.9
2018-11-12T02:32:37.931Z,33.1
2018-11-12T02:33:30.213Z,33.2
2018-11-12T02:34:17.401Z,33.4
2018-11-12T02:35:08.170Z,33.6
2018-11-12T02:35:57.982Z,33.7
2018-11-12T02:36:48.557Z,33.8
2018-11-12T02:37:39.717Z,33.9
2018-11-12T02:38:28.682Z,34
2018-11-12T02:39:18.756Z,34.1
2018-11-12T02:40:08.239Z,34.3
2018-11-12T02:40:58.682Z,34.3
2018-11-12T02:41:48.959Z,34.4
2018-11-12T02:42:38.726Z,34.5
2018-11-12T02:43:28.554Z,34.5
2018-11-12T02:44:18.764Z,33.3
2018-11-12T02:45:09.084Z,32.9
2018-11-12T02:45:58.631Z,32.7
2018-11-12T02:46:48.698Z,32.2
2018-11-12T02:47:39.274Z,31.4
2018-11-12T02:48:28.886Z,30.6
2018-11-12T02:49:20.216Z,29.6
2018-11-12T02:50:08.704Z,28.8
2018-11-12T02:50:58.796Z,28.1
2018-11-12T02:51:49.827Z,27.4
2018-11-12T02:52:39.638Z,26.9
2018-11-12T02:53:28.961Z,27
2018-11-12T02:54:19.571Z,27.3
2018-11-12T02:55:09.901Z,27.3
2018-11-12T02:55:59.358Z,27.3
2018-11-12T02:56:48.402Z,27.3
2018-11-12T02:57:41.019Z,27.2
2018-11-12T02:58:30.065Z,27.2
2018-11-12T02:59:19.433Z,27.1
2018-11-12T03:00:10.790Z,27.1
2018-11-12T03:01:00.029Z,27
2018-11-12T03:01:50.763Z,27
2018-11-12T03:02:40.626Z,26.9
2018-11-12T03:03:30.574Z,26.8
2018-11-12T03:04:19.327Z,27.1
2018-11-12T03:05:11.132Z,28
2018-11-12T03:05:59.867Z,28.8
2018-11-12T03:06:51.065Z,29.4
2018-11-12T03:07:40.718Z,29.9
2018-11-12T03:08:31.135Z,30.3
2018-11-12T03:09:21.421Z,30.7
2018-11-12T03:10:11.215Z,31.1
2018-11-12T03:11:00.207Z,31.4
2018-11-12T03:11:50.785Z,31.7
2018-11-12T03:12:40.695Z,31.9
2018-11-12T03:13:29.810Z,32.1
2018-11-12T03:14:20.668Z,32.4
2018-11-12T03:15:11.372Z,32.6
2018-11-12T03:16:02.267Z,32.7
2018-11-12T03:16:51.227Z,32.9
2018-11-12T03:17:41.224Z,33
2018-11-12T03:18:31.572Z,33.1
2018-11-12T03:19:21.265Z,33.3
2018-11-12T03:20:10.555Z,33.4
2018-11-12T03:21:02.134Z,33.5
2018-11-12T03:21:51.482Z,33.6
2018-11-12T03:22:42.127Z,33.7
2018-11-12T03:23:31.719Z,33.8
2018-11-12T03:24:20.881Z,33.8
2018-11-12T03:25:12.310Z,33.9
2018-11-12T03:26:02.048Z,33.9
2018-11-12T03:26:52.303Z,34
2018-11-12T03:27:43.671Z,34.1
2018-11-12T03:28:32.817Z,34.1
2018-11-12T03:29:22.261Z,34.1
2018-11-12T03:30:12.479Z,34.3
2018-11-12T03:31:01.990Z,34.3
2018-11-12T03:31:52.016Z,34.3
2018-11-12T03:32:42.851Z,34.3
2018-11-12T03:33:32.494Z,33.2
2018-11-12T03:34:23.009Z,32.8
2018-11-12T03:35:12.946Z,32.5
2018-11-12T03:36:02.544Z,32
2018-11-12T03:36:52.909Z,31.3
2018-11-12T03:37:42.161Z,30.5
2018-11-12T03:38:31.763Z,29.7
2018-11-12T03:39:23.621Z,28.8
2018-11-12T03:40:12.441Z,28.1
2018-11-12T03:41:02.913Z,27.5
2018-11-12T03:41:53.058Z,26.9
2018-11-12T03:42:42.603Z,26.6
2018-11-12T03:43:32.915Z,26.9
2018-11-12T03:44:23.195Z,27.1
2018-11-12T03:45:12.884Z,27.2
2018-11-12T03:46:03.606Z,27.2
2018-11-12T03:46:53.949Z,27.2
2018-11-12T03:47:43.895Z,27.1
2018-11-12T03:48:34.558Z,27.1
2018-11-12T03:49:22.663Z,27.1
2018-11-12T03:50:13.967Z,27
2018-11-12T03:51:04.090Z,26.9
2018-11-12T03:51:54.197Z,26.9
2018-11-12T03:52:43.229Z,26.9
2018-11-12T03:53:33.963Z,26.7
2018-11-12T03:54:23.915Z,27.4
2018-11-12T03:55:14.118Z,28.3
2018-11-12T03:56:04.244Z,28.9
2018-11-12T03:56:54.865Z,29.4
2018-11-12T03:57:43.744Z,29.8
2018-11-12T03:58:33.920Z,30.2
2018-11-12T03:59:24.579Z,30.5
2018-11-12T04:00:16.046Z,30.8
2018-11-12T04:01:03.324Z,31.1
2018-11-12T04:01:54.659Z,31.3
2018-11-12T04:02:44.597Z,31.6
2018-11-12T04:03:34.537Z,31.8
2018-11-12T04:04:25.470Z,31.9
2018-11-12T04:05:15.395Z,32.1
2018-11-12T04:06:04.429Z,32.3
2018-11-12T04:06:55.869Z,32.4
2018-11-12T04:07:45.670Z,32.5
2018-11-12T04:08:35.322Z,32.6
2018-11-12T04:09:25.449Z,32.7
2018-11-12T04:10:15.412Z,32.8
2018-11-12T04:11:04.317Z,32.8
2018-11-12T04:11:54.532Z,32.9
2018-11-12T04:12:45.491Z,33
2018-11-12T04:13:35.237Z,33.1
2018-11-12T04:14:25.249Z,33.1
2018-11-12T04:15:15.579Z,33.1
2018-11-12T04:16:06.763Z,33.1
2018-11-12T04:16:56.016Z,33.2
2018-11-12T04:17:46.138Z,33.3
2018-11-12T04:18:35.829Z,33.3
2018-11-12T04:19:25.141Z,33.3
2018-11-12T04:20:15.661Z,33.3
2018-11-12T04:21:05.478Z,32.5
2018-11-12T04:21:56.239Z,31.4
2018-11-12T04:22:45.728Z,29.8
2018-11-12T04:23:35.673Z,28.7
2018-11-12T04:24:26.217Z,27.7
2018-11-12T04:25:17.763Z,26.6
2018-11-12T04:26:05.513Z,25.4
2018-11-12T04:26:56.424Z,24.1
2018-11-12T04:27:46.493Z,23.4
2018-11-12T04:28:36.812Z,23.6
2018-11-12T04:29:26.008Z,24.3
2018-11-12T04:30:16.683Z,25.9
2018-11-12T04:31:06.400Z,27.2
2018-11-12T04:31:56.863Z,28.3
2018-11-12T04:32:47.373Z,29.1
2018-11-12T04:33:37.085Z,29.8
2018-11-12T04:34:26.481Z,30.3
2018-11-12T04:35:17.010Z,30.7
2018-11-12T04:36:06.469Z,31.1
2018-11-12T04:36:57.085Z,31.6
2018-11-12T04:54:15.168Z,31.7
2018-11-12T04:55:06.685Z,30.8
2018-11-12T04:55:56.021Z,29.9
2018-11-12T04:56:46.081Z,29
2018-11-12T04:57:35.617Z,28.3
2018-11-12T04:58:25.572Z,27.6
2018-11-12T04:59:17.009Z,27
2018-11-12T05:00:06.324Z,26.9
2018-11-12T05:00:56.399Z,27.2
2018-11-12T05:01:47.172Z,27.3
2018-11-12T05:02:36.101Z,27.3
2018-11-12T05:03:26.584Z,27.2
2018-11-12T05:04:16.617Z,27.1
2018-11-12T05:05:07.452Z,27.1
2018-11-12T05:05:56.702Z,27
2018-11-12T05:06:46.964Z,26.9
2018-11-12T05:07:38.835Z,26.9
2018-11-12T05:08:26.095Z,26.9
2018-11-12T05:09:16.959Z,26.8
2018-11-12T05:10:06.319Z,26.8
2018-11-12T05:10:56.505Z,26.6
2018-11-12T05:11:47.160Z,27.5
2018-11-12T05:12:37.703Z,28.4
2018-11-12T05:13:27.001Z,29
2018-11-12T05:14:17.070Z,29.6
2018-11-12T05:15:07.131Z,30
2018-11-12T05:15:58.245Z,30.4
2018-11-12T05:16:48.714Z,30.8
2018-11-12T05:17:36.798Z,31.1
2018-11-12T05:18:27.396Z,31.4
2018-11-12T05:19:17.122Z,31.6
2018-11-12T05:20:08.101Z,31.9
2018-11-12T05:20:57.416Z,32.1
2018-11-12T05:21:48.673Z,32.3
2018-11-12T05:22:37.295Z,32.5
2018-11-12T05:23:27.528Z,32.7
2018-11-12T05:24:18.797Z,32.8
2018-11-12T05:25:07.974Z,33
2018-11-12T05:25:58.363Z,33.1
2018-11-12T05:26:47.945Z,33.3
2018-11-12T05:27:38.042Z,33.4
2018-11-12T05:28:28.930Z,33.5
2018-11-12T05:29:18.903Z,33.6
2018-11-12T05:30:08.617Z,33.8
2018-11-12T05:30:57.877Z,33.8
2018-11-12T05:31:47.532Z,33.9
2018-11-12T05:32:38.577Z,34
2018-11-12T05:33:27.852Z,34.1
2018-11-12T05:34:17.971Z,34.1
2018-11-12T05:35:08.837Z,33.1
2018-11-12T05:35:58.967Z,32.6
2018-11-12T05:36:48.992Z,32.4
2018-11-12T05:37:39.201Z,31.9
2018-11-12T05:38:30.728Z,31.3
2018-11-12T05:39:19.351Z,30.5
2018-11-12T05:40:09.407Z,29.7
2018-11-12T05:40:59.071Z,28.8
2018-11-12T05:41:50.082Z,28.1
2018-11-12T05:42:38.785Z,27.4
2018-11-12T05:43:29.699Z,26.9
2018-11-12T05:44:19.164Z,26.5
2018-11-12T05:45:11.327Z,26.8
2018-11-12T05:45:59.312Z,27.1
2018-11-12T05:46:48.979Z,27.1
2018-11-12T05:47:39.332Z,27.1
2018-11-12T05:48:30.016Z,27.1
2018-11-12T05:49:19.781Z,27
2018-11-12T05:50:10.499Z,26.9
2018-11-12T05:51:00.235Z,26.9
2018-11-12T05:51:50.494Z,26.9
2018-11-12T05:52:40.053Z,26.8
2018-11-12T05:53:30.564Z,26.8
2018-11-12T05:54:20.702Z,26.6
2018-11-12T05:55:09.893Z,26.8
2018-11-12T05:56:01.127Z,27.7
2018-11-12T05:56:50.499Z,28.5
2018-11-12T05:57:40.407Z,29.1
2018-11-12T05:58:30.034Z,29.6
2018-11-12T05:59:20.243Z,30
2018-11-12T06:00:10.057Z,30.4
2018-11-12T06:00:59.548Z,30.8
2018-11-12T06:01:51.036Z,31.1
2018-11-12T06:02:39.742Z,31.4
2018-11-12T06:03:30.828Z,31.6
2018-11-12T06:04:20.413Z,31.9
2018-11-12T06:05:10.852Z,32.1
2018-11-12T06:06:01.276Z,32.3
2018-11-12T06:06:50.757Z,32.5
2018-11-12T06:07:40.623Z,32.6
2018-11-12T06:08:32.036Z,32.8
2018-11-12T06:09:20.880Z,32.9
2018-11-12T06:10:10.479Z,33.1
2018-11-12T06:11:01.663Z,33.2
2018-11-12T06:11:51.365Z,33.3
2018-11-12T06:12:41.705Z,33.4
2018-11-12T06:13:31.287Z,33.6
2018-11-12T06:14:22.457Z,33.6
2018-11-12T06:15:10.560Z,33.8
2018-11-12T06:16:01.678Z,33.8
2018-11-12T06:16:51.315Z,33.9
2018-11-12T06:17:42.428Z,34
2018-11-12T06:18:31.262Z,34.1
2018-11-12T06:19:20.845Z,34.1
2018-11-12T06:20:12.003Z,34.2
2018-11-12T06:21:01.400Z,34.3
2018-11-12T06:21:52.332Z,33.6
2018-11-12T06:22:41.292Z,32.9
2018-11-12T06:23:31.094Z,32.6
2018-11-12T06:24:22.283Z,32.2
2018-11-12T06:25:12.126Z,31.6
2018-11-12T06:26:02.771Z,30.8
2018-11-12T06:26:53.277Z,29.9
2018-11-12T06:27:43.152Z,29
2018-11-12T06:28:33.079Z,28.3
2018-11-12T06:29:22.636Z,27.6
2018-11-12T06:30:12.254Z,27.1
2018-11-12T06:31:03.213Z,26.7
2018-11-12T06:31:52.617Z,26.9
2018-11-12T06:32:42.659Z,27.2
2018-11-12T06:33:32.344Z,27.2
2018-11-12T06:34:23.141Z,27.2
2018-11-12T06:35:12.345Z,27.1
2018-11-12T06:36:03.335Z,27.1
2018-11-12T06:36:55.452Z,27.1
2018-11-12T06:37:43.494Z,27
2018-11-12T06:39:23.326Z,26.9
2018-11-12T06:40:13.474Z,26.8
2018-11-12T06:41:03.418Z,26.8
2018-11-12T06:41:53.576Z,26.6
2018-11-12T06:42:45.150Z,27.4
2018-11-12T06:43:34.031Z,28.3
2018-11-12T06:44:23.393Z,28.9
2018-11-12T06:45:13.633Z,29.5
2018-11-12T06:46:04.020Z,29.9
2018-11-12T06:46:53.378Z,30.4
2018-11-12T06:47:43.180Z,30.8
2018-11-12T06:48:33.337Z,30.1
2018-11-12T06:49:25.680Z,29.9
2018-11-12T06:50:12.675Z,29.8
2018-11-12T06:51:03.343Z,29.4
2018-11-12T06:51:54.197Z,28.8
2018-11-12T06:52:43.885Z,28.1
2018-11-12T06:53:36.425Z,27.6
2018-11-12T06:54:23.840Z,27.2
2018-11-12T06:55:14.563Z,26.9
2018-11-12T06:56:04.613Z,26.6
2018-11-12T06:56:54.270Z,26.5
2018-11-12T06:57:44.947Z,26.5
2018-11-12T06:58:34.148Z,26.4
2018-11-12T06:59:25.452Z,26.4
2018-11-12T07:00:15.122Z,26.3
2018-11-12T07:01:05.280Z,26.3
2018-11-12T07:01:55.537Z,26.2
2018-11-12T07:02:44.914Z,26.1
2018-11-12T07:03:33.932Z,26.1
2018-11-12T07:04:25.105Z,26.1
2018-11-12T07:05:14.522Z,26
2018-11-12T07:06:04.639Z,25.9
2018-11-12T07:06:56.248Z,25.9
2018-11-12T07:07:45.456Z,25.9
2018-11-12T07:08:34.972Z,25.6
2018-11-12T07:09:25.524Z,25.3
2018-11-12T07:10:15.029Z,25.2
2018-11-12T07:11:05.860Z,25.1
2018-11-12T07:11:56.503Z,24.9
2018-11-12T07:12:45.363Z,24.9
2018-11-12T07:13:35.785Z,24.8
2018-11-12T07:14:24.650Z,24.8
2018-11-12T07:15:15.368Z,24.8
2018-11-12T07:16:06.193Z,24.7
2018-11-12T07:16:56.088Z,24.6
2018-11-12T07:17:44.935Z,24.6
2018-11-12T07:18:35.432Z,24.6
2018-11-12T07:19:25.917Z,24.6
2018-11-12T07:20:16.550Z,24.5
2018-11-12T07:21:06.801Z,24.5
2018-11-12T07:21:55.666Z,24.5
2018-11-12T07:22:46.340Z,24.4
2018-11-12T07:23:37.537Z,24.4
2018-11-12T07:24:26.132Z,24.4
2018-11-12T07:25:17.022Z,24.4
2018-11-12T07:26:06.420Z,24.3
2018-11-12T07:26:56.542Z,24.3
2018-11-12T07:27:46.749Z,24.3
2018-11-12T07:28:36.966Z,24.3
2018-11-12T07:29:26.571Z,24.2
2018-11-12T07:30:16.752Z,24.2
2018-11-12T07:31:07.067Z,24.2
2018-11-12T07:31:56.404Z,24.1
2018-11-12T07:32:46.929Z,24.1
2018-11-12T07:33:36.600Z,24.1
2018-11-12T07:34:27.228Z,24.1
2018-11-12T07:35:16.437Z,24.1
2018-11-12T07:36:06.443Z,24
2018-11-12T07:36:57.826Z,24
2018-11-12T07:37:47.111Z,23.9
2018-11-12T07:38:37.126Z,23.9
2018-11-12T07:39:27.659Z,23.9
2018-11-12T07:40:17.051Z,23.9
2018-11-12T07:41:07.951Z,23.8
2018-11-12T07:41:58.630Z,23.8
2018-11-12T07:42:47.371Z,23.8
2018-11-12T07:43:38.336Z,23.8
2018-11-12T07:44:26.121Z,23.8
2018-11-12T07:45:17.301Z,23.7
2018-11-12T07:46:07.625Z,23.7
2018-11-12T07:46:57.183Z,23.7
2018-11-12T07:47:47.755Z,23.6
2018-11-12T07:48:38.741Z,23.6
2018-11-12T07:49:28.213Z,23.6
2018-11-12T07:50:17.708Z,23.6
2018-11-12T07:51:08.309Z,23.5
2018-11-12T07:51:58.501Z,23.5
2018-11-12T07:52:48.083Z,23.4
2018-11-12T07:53:39.059Z,23.4
2018-11-12T07:54:29.643Z,23.4
2018-11-12T07:55:17.848Z,23.4
2018-11-12T07:56:09.304Z,23.4
2018-11-12T07:56:58.368Z,23.3
2018-11-12T07:57:48.867Z,23.3
2018-11-12T07:58:38.106Z,23.3
2018-11-12T07:59:29.429Z,23.3
2018-11-12T08:00:18.570Z,23.3
2018-11-12T08:01:09.707Z,23.2
2018-11-12T08:01:59.610Z,23.2
2018-11-12T08:02:48.305Z,23.2
2018-11-12T08:03:56.366Z,23.2
2018-11-12T08:04:29.941Z,23.1
2018-11-12T08:05:20.043Z,23.1
2018-11-12T08:06:08.627Z,23.1
2018-11-12T08:07:00.092Z,23.1
2018-11-12T08:07:49.637Z,23.1
2018-11-12T08:08:40.202Z,23.1
2018-11-12T08:09:30.747Z,23
2018-11-12T08:10:19.549Z,23
2018-11-12T08:11:08.715Z,23
2018-11-12T08:12:00.989Z,22.9
2018-11-12T08:12:49.765Z,22.9
2018-11-12T08:13:39.177Z,22.9
2018-11-12T08:14:31.665Z,22.9
2018-11-12T08:15:20.172Z,22.9
2018-11-12T08:16:09.264Z,22.9
2018-11-12T08:17:00.716Z,22.8
2018-11-12T08:17:52.795Z,22.8
2018-11-12T08:18:39.055Z,22.8
2018-11-12T08:19:28.621Z,22.8
2018-11-12T08:20:20.767Z,22.8
2018-11-12T08:21:09.631Z,22.8
2018-11-12T08:22:00.159Z,22.8
2018-11-12T08:22:51.416Z,22.7
2018-11-12T08:23:41.023Z,22.7
2018-11-12T08:24:32.113Z,22.6
2018-11-12T08:25:20.731Z,22.6
2018-11-12T08:26:11.085Z,22.6
2018-11-12T08:27:00.563Z,22.6
2018-11-12T08:27:50.173Z,22.6
2018-11-12T08:28:39.811Z,22.6
2018-11-12T08:29:30.915Z,22.6
2018-11-12T08:30:21.488Z,22.5
2018-11-12T08:31:11.586Z,22.5
2018-11-12T08:32:01.201Z,22.5
2018-11-12T08:32:50.936Z,22.5
2018-11-12T08:33:41.216Z,22.4
2018-11-12T08:34:31.565Z,22.4
2018-11-12T08:35:21.381Z,22.4
2018-11-12T08:36:12.111Z,22.4
2018-11-12T08:37:01.028Z,22.4
2018-11-12T08:37:52.167Z,22.4
2018-11-12T08:38:41.055Z,22.3
2018-11-12T08:39:32.931Z,22.4
2018-11-12T08:40:22.484Z,22.3
2018-11-12T08:41:12.957Z,22.3
2018-11-12T08:42:01.061Z,22.3
2018-11-12T08:42:53.313Z,22.3
2018-11-12T08:43:42.333Z,22.3
2018-11-12T08:44:30.195Z,22.3
2018-11-12T08:45:22.217Z,22.3
2018-11-12T08:46:12.987Z,22.2
2018-11-12T08:47:01.545Z,22.2
2018-11-12T08:47:51.242Z,22.2
2018-11-12T08:48:41.951Z,22.2
2018-11-12T08:49:36.289Z,22.1
2018-11-12T08:50:22.012Z,22.1
2018-11-12T08:51:12.950Z,22.1
2018-11-12T08:52:02.323Z,22.1
2018-11-12T09:08:45.754Z,21.8
2018-11-12T09:09:35.698Z,21.8
2018-11-12T09:10:26.301Z,21.8
2018-11-12T09:11:15.828Z,21.8
2018-11-12T09:12:06.448Z,21.8
2018-11-12T09:12:56.544Z,21.8
2018-11-12T09:13:49.630Z,21.8
2018-11-12T09:14:37.091Z,21.8
2018-11-12T09:15:25.638Z,21.7
2018-11-12T09:16:16.216Z,21.7
2018-11-12T09:17:06.234Z,21.7
2018-11-12T09:17:56.508Z,21.7
2018-11-12T09:18:46.068Z,21.6
2018-11-12T09:19:36.810Z,21.6
2018-11-12T09:20:27.487Z,21.6
2018-11-12T09:21:16.018Z,21.6
2018-11-12T09:22:06.692Z,21.6
2018-11-12T09:22:57.525Z,21.6
2018-11-12T09:23:47.396Z,21.6
2018-11-12T09:24:37.615Z,21.6
2018-11-12T09:25:27.172Z,21.6
2018-11-12T09:26:17.613Z,21.6
2018-11-12T09:27:05.440Z,21.6
2018-11-12T09:27:56.120Z,21.5
2018-11-12T09:28:45.787Z,21.6
2018-11-12T09:29:37.185Z,21.5
2018-11-12T09:30:27.800Z,21.5
2018-11-12T09:31:30.147Z,21.5
2018-11-12T09:32:07.712Z,21.5
2018-11-12T09:32:58.630Z,21.4
2018-11-12T09:33:47.530Z,21.4
2018-11-12T09:34:39.027Z,21.4
2018-11-12T09:35:28.163Z,21.4
2018-11-12T09:36:18.226Z,21.4
2018-11-12T09:37:08.099Z,21.4
2018-11-12T09:37:59.116Z,21.4
2018-11-12T09:38:47.857Z,21.4
2018-11-12T09:39:38.613Z,21.4
2018-11-12T09:40:28.789Z,21.4
2018-11-12T09:41:17.617Z,21.4
2018-11-12T09:42:09.393Z,21.4
2018-11-12T09:42:59.084Z,21.3
2018-11-12T09:43:48.157Z,21.3
2018-11-12T09:44:39.037Z,21.4
2018-11-12T09:45:28.894Z,21.3
2018-11-12T09:46:19.736Z,21.3
2018-11-12T09:47:07.694Z,21.3
2018-11-12T09:48:01.593Z,21.3
2018-11-12T09:48:50.441Z,21.3
2018-11-12T09:49:39.974Z,21.3
2018-11-12T09:50:29.421Z,21.3
2018-11-12T09:51:18.765Z,21.3
2018-11-12T09:52:08.546Z,21.3
2018-11-12T09:52:59.421Z,21.3
2018-11-12T09:53:51.970Z,21.3
2018-11-12T09:54:43.460Z,21.3
2018-11-12T09:55:29.380Z,21.3
2018-11-12T09:56:20.611Z,21.2
2018-11-12T09:57:10.769Z,21.2
2018-11-12T09:58:00.041Z,21.2
2018-11-12T09:58:49.648Z,21.2
2018-11-12T09:59:39.500Z,21.2
2018-11-12T10:00:34.901Z,21.2
2018-11-12T10:01:26.653Z,21.2
2018-11-12T10:03:15.187Z,21.2
2018-11-12T10:10:26.192Z,21.1
2018-11-12T10:11:20.065Z,21.1
2018-11-12T10:12:16.588Z,21.1
2018-11-12T10:13:26.213Z,21.1
2018-11-12T10:14:16.935Z,21.1
2018-11-12T10:15:08.720Z,21.1
2018-11-12T10:16:16.763Z,21
2018-11-12T10:17:32.687Z,21
2018-11-12T10:18:14.511Z,20.9
2018-11-12T10:18:33.647Z,21
2018-11-12T10:19:23.968Z,21
2018-11-12T10:20:14.652Z,21
2018-11-12T10:21:03.672Z,20.9
2018-11-12T10:21:54.734Z,20.9
2018-11-12T10:22:44.154Z,20.9
2018-11-12T10:23:34.757Z,20.9
2018-11-12T10:24:22.836Z,20.9
2018-11-12T10:25:14.334Z,20.9
2018-11-12T10:26:04.089Z,20.9
2018-11-12T10:26:54.139Z,20.9
2018-11-12T10:27:44.242Z,20.9
2018-11-12T10:28:34.463Z,20.9
2018-11-12T10:29:24.219Z,20.9
2018-11-12T10:30:14.262Z,20.9
2018-11-12T10:31:04.896Z,20.9
2018-11-12T10:31:54.611Z,20.9
2018-11-12T10:32:44.946Z,20.9
2018-11-12T10:33:35.924Z,20.9
2018-11-12T10:34:24.657Z,20.9
2018-11-12T10:35:14.278Z,20.9
2018-11-12T10:36:04.211Z,20.9
2018-11-12T10:36:54.824Z,20.9
2018-11-12T10:37:44.883Z,20.8
2018-11-12T10:38:34.302Z,20.8
2018-11-12T10:39:24.672Z,20.8
2018-11-12T10:40:15.250Z,20.8
2018-11-12T10:41:05.491Z,20.8
2018-11-12T10:41:56.070Z,20.8
2018-11-12T10:42:47.840Z,20.8
2018-11-12T10:43:36.240Z,20.8
2018-11-12T10:44:25.481Z,20.8
2018-11-12T10:45:15.355Z,20.8
2018-11-12T10:46:06.173Z,20.8
2018-11-12T10:46:56.176Z,20.8
2018-11-12T10:47:46.366Z,20.8
2018-11-12T10:48:36.511Z,20.8
2018-11-12T10:49:26.660Z,20.8
2018-11-12T10:50:15.913Z,20.8
2018-11-12T10:51:11.892Z,20.8
2018-11-12T10:51:56.802Z,20.8
2018-11-12T10:52:46.035Z,20.8
2018-11-12T10:53:37.826Z,20.8
2018-11-12T10:54:27.104Z,20.8
2018-11-12T10:55:20.337Z,20.8
2018-11-12T10:56:11.166Z,20.8
2018-11-12T10:56:56.947Z,20.8
2018-11-12T10:57:46.962Z,20.8
2018-11-12T10:58:38.508Z,20.8
2018-11-12T10:59:26.842Z,20.8
2018-11-12T11:00:18.910Z,20.8
2018-11-12T11:01:06.662Z,20.8
2018-11-12T11:01:57.029Z,20.7
2018-11-12T11:02:46.270Z,20.8
2018-11-12T11:03:37.204Z,20.7
2018-11-12T11:04:28.006Z,20.8
2018-11-12T11:05:16.936Z,20.7
2018-11-12T11:06:05.722Z,20.7
2018-11-12T11:06:58.192Z,20.7
2018-11-12T11:07:47.224Z,20.7
2018-11-12T11:08:37.790Z,20.7
2018-11-12T11:09:28.055Z,20.7
2018-11-12T11:10:16.944Z,20.7
2018-11-12T11:11:07.706Z,20.7
2018-11-12T11:11:57.864Z,20.7
2018-11-12T11:12:48.124Z,20.7
2018-11-12T11:13:37.622Z,20.7
2018-11-12T11:14:28.556Z,20.6
2018-11-12T11:15:18.731Z,20.6
2018-11-12T11:16:07.686Z,20.7
2018-11-12T11:16:58.317Z,20.6
2018-11-12T11:17:47.668Z,20.6
2018-11-12T11:18:38.489Z,20.6
2018-11-12T11:19:29.082Z,20.6
2018-11-12T11:20:17.734Z,20.6
2018-11-12T11:21:08.564Z,20.6
2018-11-12T11:21:59.098Z,20.6
2018-11-12T11:22:48.254Z,20.6
2018-11-12T11:23:39.094Z,20.6
2018-11-12T11:24:29.405Z,20.6
2018-11-12T11:25:17.996Z,20.6
2018-11-12T11:26:08.928Z,20.6
2018-11-12T11:26:59.063Z,20.6
2018-11-12T11:27:48.132Z,20.6
2018-11-12T11:28:40.023Z,20.6
2018-11-12T11:29:29.211Z,20.6
2018-11-12T11:30:18.413Z,20.6
2018-11-12T11:31:09.698Z,20.6
2018-11-12T11:31:58.658Z,20.6
2018-11-12T11:32:49.659Z,20.6
2018-11-12T11:33:38.768Z,20.6
2018-11-12T11:34:28.873Z,20.6
2018-11-12T11:35:19.453Z,20.6
2018-11-12T11:36:09.285Z,20.6
2018-11-12T11:36:59.183Z,20.5
2018-11-12T11:37:49.478Z,20.6
2018-11-12T11:38:39.352Z,20.5
2018-11-12T11:39:28.877Z,20.6
2018-11-12T11:40:21.266Z,20.6
2018-11-12T11:41:09.780Z,20.6
2018-11-12T11:41:59.319Z,20.6
2018-11-12T11:42:49.197Z,20.6
2018-11-12T11:43:39.472Z,20.5
2018-11-12T11:44:28.935Z,20.6
2018-11-12T11:45:19.632Z,20.6
2018-11-12T11:46:09.696Z,20.5
2018-11-12T11:47:00.520Z,20.6
2018-11-12T11:47:51.450Z,20.6
2018-11-12T11:48:40.677Z,20.5
2018-11-12T11:49:29.740Z,20.5
2018-11-12T11:50:21.667Z,20.5
2018-11-12T11:51:10.347Z,20.5
2018-11-12T11:52:00.545Z,20.6
2018-11-12T11:52:50.952Z,20.5
2018-11-12T11:53:40.071Z,20.5
2018-11-12T11:54:29.904Z,20.5
2018-11-12T11:55:19.829Z,20.5
2018-11-12T11:56:10.369Z,20.5
2018-11-12T11:57:01.329Z,20.5
2018-11-12T11:57:52.027Z,20.5
2018-11-12T11:58:40.430Z,20.5
2018-11-12T11:59:30.949Z,20.5
2018-11-12T12:00:21.091Z,20.5
2018-11-12T12:01:12.892Z,20.5
2018-11-12T12:02:01.247Z,20.5
2018-11-12T12:02:51.883Z,20.5
2018-11-12T12:03:40.554Z,20.5
2018-11-12T12:04:31.391Z,20.5
2018-11-12T12:05:21.912Z,20.5
2018-11-12T12:06:11.653Z,20.5
2018-11-12T12:07:01.449Z,20.5
2018-11-12T12:07:51.749Z,20.4
2018-11-12T12:08:41.798Z,20.5
2018-11-12T12:09:32.179Z,20.4
2018-11-12T12:10:22.529Z,20.5
2018-11-12T12:11:12.784Z,20.4
2018-11-12T12:12:02.463Z,20.5
2018-11-12T12:12:53.781Z,20.4
2018-11-12T12:13:41.092Z,20.4
2018-11-12T12:14:33.031Z,20.4